sensor_id;sensor_type;location;lat;lon;timestamp;temperature;humidity
18406;DHT22;9329;48.720;9.588;2022-09-12T00:00:18;14.80;99.90
18406;DHT22;9329;48.720;9.588;2022-09-12T00:02:46;14.90;99.90
18406;DHT22;9329;48.720;9.588;2022-09-12T00:05:14;14.80;99.90
18406;DHT22;9329;48.720;9.588;2022-09-12T00:07:41;15.00;99.90
18406;DHT22;9329;48.720;9.588;2022-09-12T00:10:08;15.20;99.90
18406;DHT22;9329;48.720;9.588;2022-09-12T00:12:35;15.10;99.90
18406;DHT22;9329;48.720;9.588;2022-09-12T00:15:03;14.60;99.90
18406;DHT22;9329;48.720;9.588;2022-09-12T00:17:33;14.50;99.90
18406;DHT22;9329;48.720;9.588;2022-09-12T00:20:00;14.50;99.90
18406;DHT22;9329;48.720;9.588;2022-09-12T00:22:28;14.50;99.90
18406;DHT22;9329;48.720;9.588;2022-09-12T00:24:55;14.30;99.90
18406;DHT22;9329;48.720;9.588;2022-09-12T00:27:22;14.30;99.90
18406;DHT22;9329;48.720;9.588;2022-09-12T00:29:49;14.40;99.90
18406;DHT22;9329;48.720;9.588;2022-09-12T00:32:16;14.50;99.90
18406;DHT22;9329;48.720;9.588;2022-09-12T00:34:43;14.60;99.90
18406;DHT22;9329;48.720;9.588;2022-09-12T00:37:10;14.60;99.90
18406;DHT22;9329;48.720;9.588;2022-09-12T00:39:38;14.40;99.90
18406;DHT22;9329;48.720;9.588;2022-09-12T00:42:05;14.30;99.90
18406;DHT22;9329;48.720;9.588;2022-09-12T00:44:48;14.30;99.90
18406;DHT22;9329;48.720;9.588;2022-09-12T00:47:23;14.80;99.90
18406;DHT22;9329;48.720;9.588;2022-09-12T00:49:57;15.00;99.90
18406;DHT22;9329;48.720;9.588;2022-09-12T00:52:28;15.10;99.90
18406;DHT22;9329;48.720;9.588;2022-09-12T00:55:02;15.00;99.90
18406;DHT22;9329;48.720;9.588;2022-09-12T00:57:34;14.70;99.90
18406;DHT22;9329;48.720;9.588;2022-09-12T01:00:07;14.40;99.90
18406;DHT22;9329;48.720;9.588;2022-09-12T01:02:38;14.40;99.90
18406;DHT22;9329;48.720;9.588;2022-09-12T01:05:07;14.20;99.90
18406;DHT22;9329;48.720;9.588;2022-09-12T01:07:35;14.00;99.90
18406;DHT22;9329;48.720;9.588;2022-09-12T01:10:04;14.40;99.90
18406;DHT22;9329;48.720;9.588;2022-09-12T01:12:32;14.80;99.90
18406;DHT22;9329;48.720;9.588;2022-09-12T01:15:00;14.80;99.90
18406;DHT22;9329;48.720;9.588;2022-09-12T01:17:33;14.20;99.90
18406;DHT22;9329;48.720;9.588;2022-09-12T01:20:25;14.10;99.90
18406;DHT22;9329;48.720;9.588;2022-09-12T01:26:33;14.50;99.90
18406;DHT22;9329;48.720;9.588;2022-09-12T01:29:18;14.70;99.90
18406;DHT22;9329;48.720;9.588;2022-09-12T01:32:01;14.40;99.90
18406;DHT22;9329;48.720;9.588;2022-09-12T01:34:37;14.40;99.90
18406;DHT22;9329;48.720;9.588;2022-09-12T01:37:13;14.00;99.90
18406;DHT22;9329;48.720;9.588;2022-09-12T01:39:47;13.80;99.90
18406;DHT22;9329;48.720;9.588;2022-09-12T01:42:23;13.70;99.90
18406;DHT22;9329;48.720;9.588;2022-09-12T01:44:56;13.60;99.90
18406;DHT22;9329;48.720;9.588;2022-09-12T01:47:35;13.80;99.90
18406;DHT22;9329;48.720;9.588;2022-09-12T01:50:07;13.70;99.90
18406;DHT22;9329;48.720;9.588;2022-09-12T01:52:40;13.80;99.90
18406;DHT22;9329;48.720;9.588;2022-09-12T01:55:11;14.00;99.90
18406;DHT22;9329;48.720;9.588;2022-09-12T01:57:43;13.90;99.90
18406;DHT22;9329;48.720;9.588;2022-09-12T02:00:12;13.80;99.90
18406;DHT22;9329;48.720;9.588;2022-09-12T02:02:44;13.90;99.90
18406;DHT22;9329;48.720;9.588;2022-09-12T02:05:19;13.90;99.90
18406;DHT22;9329;48.720;9.588;2022-09-12T02:07:51;14.40;99.90
18406;DHT22;9329;48.720;9.588;2022-09-12T02:10:22;14.20;99.90
18406;DHT22;9329;48.720;9.588;2022-09-12T02:12:53;14.00;99.90
18406;DHT22;9329;48.720;9.588;2022-09-12T02:15:27;13.70;99.90
18406;DHT22;9329;48.720;9.588;2022-09-12T02:17:57;14.00;99.90
18406;DHT22;9329;48.720;9.588;2022-09-12T02:20:28;14.30;99.90
18406;DHT22;9329;48.720;9.588;2022-09-12T02:22:56;14.10;99.90
18406;DHT22;9329;48.720;9.588;2022-09-12T02:25:28;13.70;99.90
18406;DHT22;9329;48.720;9.588;2022-09-12T02:27:59;14.20;99.90
18406;DHT22;9329;48.720;9.588;2022-09-12T02:30:31;14.40;99.90
18406;DHT22;9329;48.720;9.588;2022-09-12T02:33:06;13.80;99.90
18406;DHT22;9329;48.720;9.588;2022-09-12T02:35:44;13.50;99.90
18406;DHT22;9329;48.720;9.588;2022-09-12T02:38:16;13.00;99.90
18406;DHT22;9329;48.720;9.588;2022-09-12T02:40:46;12.90;99.90
18406;DHT22;9329;48.720;9.588;2022-09-12T02:43:13;13.10;99.90
18406;DHT22;9329;48.720;9.588;2022-09-12T02:45:40;13.40;99.90
18406;DHT22;9329;48.720;9.588;2022-09-12T02:48:11;13.40;99.90
18406;DHT22;9329;48.720;9.588;2022-09-12T02:50:40;13.30;99.90
18406;DHT22;9329;48.720;9.588;2022-09-12T02:53:08;13.50;99.90
18406;DHT22;9329;48.720;9.588;2022-09-12T02:55:37;13.20;99.90
18406;DHT22;9329;48.720;9.588;2022-09-12T02:58:07;13.10;99.90
18406;DHT22;9329;48.720;9.588;2022-09-12T03:00:41;13.50;99.90
18406;DHT22;9329;48.720;9.588;2022-09-12T03:03:32;13.60;99.90
18406;DHT22;9329;48.720;9.588;2022-09-12T03:06:11;13.50;99.90
18406;DHT22;9329;48.720;9.588;2022-09-12T03:08:56;13.80;99.90
18406;DHT22;9329;48.720;9.588;2022-09-12T03:11:47;13.80;99.90
18406;DHT22;9329;48.720;9.588;2022-09-12T03:14:29;13.30;99.90
18406;DHT22;9329;48.720;9.588;2022-09-12T03:17:06;13.10;99.90
18406;DHT22;9329;48.720;9.588;2022-09-12T03:19:45;13.10;99.90
18406;DHT22;9329;48.720;9.588;2022-09-12T03:22:18;13.30;99.90
18406;DHT22;9329;48.720;9.588;2022-09-12T03:24:50;13.00;99.90
18406;DHT22;9329;48.720;9.588;2022-09-12T03:27:23;13.20;99.90
18406;DHT22;9329;48.720;9.588;2022-09-12T03:29:53;12.90;99.90
18406;DHT22;9329;48.720;9.588;2022-09-12T03:32:39;12.80;99.90
18406;DHT22;9329;48.720;9.588;2022-09-12T03:35:09;13.10;99.90
18406;DHT22;9329;48.720;9.588;2022-09-12T03:37:36;12.90;99.90
18406;DHT22;9329;48.720;9.588;2022-09-12T03:40:03;12.90;99.90
18406;DHT22;9329;48.720;9.588;2022-09-12T03:42:31;12.70;99.90
18406;DHT22;9329;48.720;9.588;2022-09-12T03:44:58;13.10;99.90
18406;DHT22;9329;48.720;9.588;2022-09-12T03:47:25;12.90;99.90
18406;DHT22;9329;48.720;9.588;2022-09-12T03:49:52;13.10;99.90
18406;DHT22;9329;48.720;9.588;2022-09-12T03:52:20;12.90;99.90
18406;DHT22;9329;48.720;9.588;2022-09-12T03:54:47;12.70;99.90
18406;DHT22;9329;48.720;9.588;2022-09-12T03:57:15;12.60;99.90
18406;DHT22;9329;48.720;9.588;2022-09-12T03:59:42;12.80;99.90
18406;DHT22;9329;48.720;9.588;2022-09-12T04:02:09;12.50;99.90
18406;DHT22;9329;48.720;9.588;2022-09-12T04:04:37;12.50;99.90
18406;DHT22;9329;48.720;9.588;2022-09-12T04:07:06;13.00;99.90
18406;DHT22;9329;48.720;9.588;2022-09-12T04:09:34;13.00;99.90
18406;DHT22;9329;48.720;9.588;2022-09-12T04:12:02;12.80;99.90
18406;DHT22;9329;48.720;9.588;2022-09-12T04:14:29;12.20;99.90
18406;DHT22;9329;48.720;9.588;2022-09-12T04:16:56;12.20;99.90
18406;DHT22;9329;48.720;9.588;2022-09-12T04:19:24;12.40;99.90
18406;DHT22;9329;48.720;9.588;2022-09-12T04:21:51;12.40;99.90
18406;DHT22;9329;48.720;9.588;2022-09-12T04:24:18;12.30;99.90
18406;DHT22;9329;48.720;9.588;2022-09-12T04:26:46;12.10;99.90
18406;DHT22;9329;48.720;9.588;2022-09-12T04:29:13;12.50;99.90
18406;DHT22;9329;48.720;9.588;2022-09-12T04:31:41;12.80;99.90
18406;DHT22;9329;48.720;9.588;2022-09-12T04:34:08;12.30;99.90
18406;DHT22;9329;48.720;9.588;2022-09-12T04:36:35;12.50;99.90
18406;DHT22;9329;48.720;9.588;2022-09-12T04:39:04;12.50;99.90
18406;DHT22;9329;48.720;9.588;2022-09-12T04:41:33;12.40;99.90
18406;DHT22;9329;48.720;9.588;2022-09-12T04:44:04;13.00;99.90
18406;DHT22;9329;48.720;9.588;2022-09-12T04:46:33;13.30;99.90
18406;DHT22;9329;48.720;9.588;2022-09-12T04:49:00;13.10;99.90
18406;DHT22;9329;48.720;9.588;2022-09-12T04:51:29;13.00;99.90
18406;DHT22;9329;48.720;9.588;2022-09-12T04:53:58;13.20;99.90
18406;DHT22;9329;48.720;9.588;2022-09-12T04:56:25;13.10;99.90
18406;DHT22;9329;48.720;9.588;2022-09-12T04:58:55;12.90;99.90
18406;DHT22;9329;48.720;9.588;2022-09-12T05:01:24;12.70;99.90
18406;DHT22;9329;48.720;9.588;2022-09-12T05:03:52;12.20;99.90
18406;DHT22;9329;48.720;9.588;2022-09-12T05:06:21;12.10;99.90
18406;DHT22;9329;48.720;9.588;2022-09-12T05:08:48;12.10;99.90
18406;DHT22;9329;48.720;9.588;2022-09-12T05:11:18;12.40;99.90
18406;DHT22;9329;48.720;9.588;2022-09-12T05:13:49;12.40;99.90
18406;DHT22;9329;48.720;9.588;2022-09-12T05:16:17;12.20;99.90
18406;DHT22;9329;48.720;9.588;2022-09-12T05:18:46;12.10;99.90
18406;DHT22;9329;48.720;9.588;2022-09-12T05:21:15;12.80;99.90
18406;DHT22;9329;48.720;9.588;2022-09-12T05:23:43;13.00;99.90
18406;DHT22;9329;48.720;9.588;2022-09-12T05:26:13;12.90;99.90
18406;DHT22;9329;48.720;9.588;2022-09-12T05:28:40;12.80;99.90
18406;DHT22;9329;48.720;9.588;2022-09-12T05:31:10;13.00;99.90
18406;DHT22;9329;48.720;9.588;2022-09-12T05:33:39;12.90;99.90
18406;DHT22;9329;48.720;9.588;2022-09-12T05:36:10;13.00;99.90
18406;DHT22;9329;48.720;9.588;2022-09-12T05:38:37;13.50;99.90
18406;DHT22;9329;48.720;9.588;2022-09-12T05:41:06;13.40;99.90
18406;DHT22;9329;48.720;9.588;2022-09-12T05:43:34;13.90;99.90
18406;DHT22;9329;48.720;9.588;2022-09-12T05:46:02;14.10;99.90
18406;DHT22;9329;48.720;9.588;2022-09-12T05:48:29;14.10;99.90
18406;DHT22;9329;48.720;9.588;2022-09-12T05:51:00;14.20;99.90
18406;DHT22;9329;48.720;9.588;2022-09-12T05:53:29;14.30;99.90
18406;DHT22;9329;48.720;9.588;2022-09-12T05:56:07;14.40;99.90
18406;DHT22;9329;48.720;9.588;2022-09-12T05:58:36;14.60;99.90
18406;DHT22;9329;48.720;9.588;2022-09-12T06:01:05;14.50;99.90
18406;DHT22;9329;48.720;9.588;2022-09-12T06:03:34;14.30;99.90
18406;DHT22;9329;48.720;9.588;2022-09-12T06:06:03;14.30;99.90
18406;DHT22;9329;48.720;9.588;2022-09-12T06:08:32;14.50;99.90
18406;DHT22;9329;48.720;9.588;2022-09-12T06:11:02;14.20;99.90
18406;DHT22;9329;48.720;9.588;2022-09-12T06:13:31;13.80;99.90
18406;DHT22;9329;48.720;9.588;2022-09-12T06:16:02;14.00;99.90
18406;DHT22;9329;48.720;9.588;2022-09-12T06:18:30;14.30;99.90
18406;DHT22;9329;48.720;9.588;2022-09-12T06:21:00;14.20;99.90
18406;DHT22;9329;48.720;9.588;2022-09-12T06:23:27;14.10;99.90
18406;DHT22;9329;48.720;9.588;2022-09-12T06:25:56;14.60;99.90
18406;DHT22;9329;48.720;9.588;2022-09-12T06:28:23;14.60;99.90
18406;DHT22;9329;48.720;9.588;2022-09-12T06:30:50;14.60;99.90
18406;DHT22;9329;48.720;9.588;2022-09-12T06:33:17;14.50;99.90
18406;DHT22;9329;48.720;9.588;2022-09-12T06:35:44;14.60;99.90
18406;DHT22;9329;48.720;9.588;2022-09-12T06:38:12;14.90;99.90
18406;DHT22;9329;48.720;9.588;2022-09-12T06:40:41;15.00;99.90
18406;DHT22;9329;48.720;9.588;2022-09-12T06:43:12;15.50;99.90
18406;DHT22;9329;48.720;9.588;2022-09-12T06:45:39;15.40;99.90
18406;DHT22;9329;48.720;9.588;2022-09-12T06:48:13;15.10;99.90
18406;DHT22;9329;48.720;9.588;2022-09-12T06:50:40;15.10;99.90
18406;DHT22;9329;48.720;9.588;2022-09-12T06:53:07;15.20;99.90
18406;DHT22;9329;48.720;9.588;2022-09-12T06:55:34;15.30;99.90
18406;DHT22;9329;48.720;9.588;2022-09-12T06:58:01;15.40;99.90
18406;DHT22;9329;48.720;9.588;2022-09-12T07:00:31;15.50;99.90
18406;DHT22;9329;48.720;9.588;2022-09-12T07:02:58;15.40;99.90
18406;DHT22;9329;48.720;9.588;2022-09-12T07:05:25;15.50;99.90
18406;DHT22;9329;48.720;9.588;2022-09-12T07:07:52;15.60;99.90
18406;DHT22;9329;48.720;9.588;2022-09-12T07:10:19;15.90;99.90
18406;DHT22;9329;48.720;9.588;2022-09-12T07:12:46;15.90;99.90
18406;DHT22;9329;48.720;9.588;2022-09-12T07:15:13;16.10;99.90
18406;DHT22;9329;48.720;9.588;2022-09-12T07:17:42;16.50;99.90
18406;DHT22;9329;48.720;9.588;2022-09-12T07:20:09;16.50;99.90
18406;DHT22;9329;48.720;9.588;2022-09-12T07:22:36;16.50;99.90
18406;DHT22;9329;48.720;9.588;2022-09-12T07:25:04;16.70;99.90
18406;DHT22;9329;48.720;9.588;2022-09-12T07:27:31;17.00;99.90
18406;DHT22;9329;48.720;9.588;2022-09-12T07:29:58;17.30;99.90
18406;DHT22;9329;48.720;9.588;2022-09-12T07:32:26;17.20;99.90
18406;DHT22;9329;48.720;9.588;2022-09-12T07:34:54;17.40;99.90
18406;DHT22;9329;48.720;9.588;2022-09-12T07:37:21;17.30;99.90
18406;DHT22;9329;48.720;9.588;2022-09-12T07:39:48;17.50;99.90
18406;DHT22;9329;48.720;9.588;2022-09-12T07:42:15;17.90;99.90
18406;DHT22;9329;48.720;9.588;2022-09-12T07:44:42;17.80;99.90
18406;DHT22;9329;48.720;9.588;2022-09-12T07:47:10;17.80;99.90
18406;DHT22;9329;48.720;9.588;2022-09-12T07:49:37;18.10;99.90
18406;DHT22;9329;48.720;9.588;2022-09-12T07:52:05;18.60;99.90
18406;DHT22;9329;48.720;9.588;2022-09-12T07:54:32;18.40;99.90
18406;DHT22;9329;48.720;9.588;2022-09-12T07:56:59;18.40;99.90
18406;DHT22;9329;48.720;9.588;2022-09-12T07:59:26;18.60;99.90
18406;DHT22;9329;48.720;9.588;2022-09-12T08:01:53;18.70;99.90
18406;DHT22;9329;48.720;9.588;2022-09-12T08:04:20;19.10;99.90
18406;DHT22;9329;48.720;9.588;2022-09-12T08:06:47;19.20;99.90
18406;DHT22;9329;48.720;9.588;2022-09-12T08:09:16;19.40;99.90
18406;DHT22;9329;48.720;9.588;2022-09-12T08:11:43;19.50;99.90
18406;DHT22;9329;48.720;9.588;2022-09-12T08:14:10;19.50;99.90
18406;DHT22;9329;48.720;9.588;2022-09-12T08:16:37;19.70;99.90
18406;DHT22;9329;48.720;9.588;2022-09-12T08:19:04;19.70;99.90
18406;DHT22;9329;48.720;9.588;2022-09-12T08:21:32;19.90;99.90
18406;DHT22;9329;48.720;9.588;2022-09-12T08:24:00;19.60;99.90
18406;DHT22;9329;48.720;9.588;2022-09-12T08:26:30;19.80;99.90
18406;DHT22;9329;48.720;9.588;2022-09-12T08:29:03;19.70;99.90
18406;DHT22;9329;48.720;9.588;2022-09-12T08:31:31;19.90;99.90
18406;DHT22;9329;48.720;9.588;2022-09-12T08:34:01;19.80;99.90
18406;DHT22;9329;48.720;9.588;2022-09-12T08:36:28;19.80;99.90
18406;DHT22;9329;48.720;9.588;2022-09-12T08:38:57;20.00;99.90
18406;DHT22;9329;48.720;9.588;2022-09-12T08:41:29;20.20;99.90
18406;DHT22;9329;48.720;9.588;2022-09-12T08:44:29;20.10;99.90
18406;DHT22;9329;48.720;9.588;2022-09-12T08:47:18;20.40;99.90
18406;DHT22;9329;48.720;9.588;2022-09-12T08:49:52;20.40;99.90
18406;DHT22;9329;48.720;9.588;2022-09-12T08:52:23;20.50;99.90
18406;DHT22;9329;48.720;9.588;2022-09-12T08:54:50;20.60;99.90
18406;DHT22;9329;48.720;9.588;2022-09-12T08:57:20;20.70;99.90
18406;DHT22;9329;48.720;9.588;2022-09-12T08:59:48;21.10;99.90
18406;DHT22;9329;48.720;9.588;2022-09-12T09:02:22;21.20;99.90
18406;DHT22;9329;48.720;9.588;2022-09-12T09:04:51;21.20;99.90
18406;DHT22;9329;48.720;9.588;2022-09-12T09:07:28;21.30;99.90
18406;DHT22;9329;48.720;9.588;2022-09-12T09:10:00;21.50;99.90
18406;DHT22;9329;48.720;9.588;2022-09-12T09:12:35;21.60;99.90
18406;DHT22;9329;48.720;9.588;2022-09-12T09:15:12;21.90;99.90
18406;DHT22;9329;48.720;9.588;2022-09-12T09:17:46;22.00;99.90
18406;DHT22;9329;48.720;9.588;2022-09-12T09:20:15;22.00;99.90
18406;DHT22;9329;48.720;9.588;2022-09-12T09:22:43;22.20;99.90
18406;DHT22;9329;48.720;9.588;2022-09-12T09:25:14;22.40;99.90
18406;DHT22;9329;48.720;9.588;2022-09-12T09:27:45;22.40;99.90
18406;DHT22;9329;48.720;9.588;2022-09-12T09:30:14;22.70;99.90
18406;DHT22;9329;48.720;9.588;2022-09-12T09:32:41;22.70;99.90
18406;DHT22;9329;48.720;9.588;2022-09-12T09:35:14;22.90;99.90
18406;DHT22;9329;48.720;9.588;2022-09-12T09:37:42;22.70;99.90
18406;DHT22;9329;48.720;9.588;2022-09-12T09:40:13;22.90;99.90
18406;DHT22;9329;48.720;9.588;2022-09-12T09:42:43;22.80;99.90
18406;DHT22;9329;48.720;9.588;2022-09-12T09:45:13;22.80;99.90
18406;DHT22;9329;48.720;9.588;2022-09-12T09:47:41;22.90;99.90
18406;DHT22;9329;48.720;9.588;2022-09-12T09:50:11;23.20;99.90
18406;DHT22;9329;48.720;9.588;2022-09-12T09:52:41;23.40;99.90
18406;DHT22;9329;48.720;9.588;2022-09-12T09:55:09;23.20;99.90
18406;DHT22;9329;48.720;9.588;2022-09-12T09:57:38;23.40;99.90
18406;DHT22;9329;48.720;9.588;2022-09-12T10:00:26;23.50;99.90
18406;DHT22;9329;48.720;9.588;2022-09-12T10:02:59;23.40;99.90
18406;DHT22;9329;48.720;9.588;2022-09-12T10:05:27;23.20;99.90
18406;DHT22;9329;48.720;9.588;2022-09-12T10:07:54;23.50;99.90
18406;DHT22;9329;48.720;9.588;2022-09-12T10:10:21;23.70;99.90
18406;DHT22;9329;48.720;9.588;2022-09-12T10:12:48;23.70;99.90
18406;DHT22;9329;48.720;9.588;2022-09-12T10:15:16;23.80;99.90
18406;DHT22;9329;48.720;9.588;2022-09-12T10:17:45;24.00;99.90
18406;DHT22;9329;48.720;9.588;2022-09-12T10:20:28;23.90;99.90
18406;DHT22;9329;48.720;9.588;2022-09-12T10:22:56;24.00;99.90
18406;DHT22;9329;48.720;9.588;2022-09-12T10:25:23;23.70;99.90
18406;DHT22;9329;48.720;9.588;2022-09-12T10:27:52;23.60;99.90
18406;DHT22;9329;48.720;9.588;2022-09-12T10:30:20;23.70;99.90
18406;DHT22;9329;48.720;9.588;2022-09-12T10:32:50;23.90;99.90
18406;DHT22;9329;48.720;9.588;2022-09-12T10:35:18;24.10;99.90
18406;DHT22;9329;48.720;9.588;2022-09-12T10:37:50;24.20;99.90
18406;DHT22;9329;48.720;9.588;2022-09-12T10:40:22;24.10;99.90
18406;DHT22;9329;48.720;9.588;2022-09-12T10:42:53;24.00;99.90
18406;DHT22;9329;48.720;9.588;2022-09-12T10:45:21;24.10;99.90
18406;DHT22;9329;48.720;9.588;2022-09-12T10:47:50;24.20;99.90
18406;DHT22;9329;48.720;9.588;2022-09-12T10:50:19;24.40;99.90
18406;DHT22;9329;48.720;9.588;2022-09-12T10:52:45;24.40;99.90
18406;DHT22;9329;48.720;9.588;2022-09-12T10:55:12;24.30;99.90
18406;DHT22;9329;48.720;9.588;2022-09-12T10:57:43;24.60;99.90
18406;DHT22;9329;48.720;9.588;2022-09-12T11:00:12;24.60;99.90
18406;DHT22;9329;48.720;9.588;2022-09-12T11:02:54;24.80;99.90
18406;DHT22;9329;48.720;9.588;2022-09-12T11:05:32;25.20;99.90
18406;DHT22;9329;48.720;9.588;2022-09-12T11:08:05;25.50;99.90
18406;DHT22;9329;48.720;9.588;2022-09-12T11:10:39;25.50;99.90
18406;DHT22;9329;48.720;9.588;2022-09-12T11:13:12;25.60;96.30
18406;DHT22;9329;48.720;9.588;2022-09-12T11:15:58;25.70;96.70
18406;DHT22;9329;48.720;9.588;2022-09-12T11:18:49;25.80;98.80
18406;DHT22;9329;48.720;9.588;2022-09-12T11:21:24;25.90;98.20
18406;DHT22;9329;48.720;9.588;2022-09-12T11:24:02;25.40;97.10
18406;DHT22;9329;48.720;9.588;2022-09-12T11:26:37;25.50;96.90
18406;DHT22;9329;48.720;9.588;2022-09-12T11:29:08;25.80;97.00
18406;DHT22;9329;48.720;9.588;2022-09-12T11:31:46;26.00;98.10
18406;DHT22;9329;48.720;9.588;2022-09-12T11:34:19;26.00;98.10
18406;DHT22;9329;48.720;9.588;2022-09-12T11:36:52;26.20;97.10
18406;DHT22;9329;48.720;9.588;2022-09-12T11:39:22;26.50;96.70
18406;DHT22;9329;48.720;9.588;2022-09-12T11:41:49;26.80;96.30
18406;DHT22;9329;48.720;9.588;2022-09-12T11:44:18;27.00;95.50
18406;DHT22;9329;48.720;9.588;2022-09-12T11:46:46;26.90;94.30
18406;DHT22;9329;48.720;9.588;2022-09-12T11:49:20;26.90;93.10
18406;DHT22;9329;48.720;9.588;2022-09-12T11:51:49;26.90;93.20
18406;DHT22;9329;48.720;9.588;2022-09-12T11:54:19;27.30;95.80
18406;DHT22;9329;48.720;9.588;2022-09-12T11:56:48;27.30;93.20
18406;DHT22;9329;48.720;9.588;2022-09-12T11:59:19;27.80;92.20
18406;DHT22;9329;48.720;9.588;2022-09-12T12:01:49;27.70;90.50
18406;DHT22;9329;48.720;9.588;2022-09-12T12:04:19;28.00;92.40
18406;DHT22;9329;48.720;9.588;2022-09-12T12:06:51;29.10;87.80
18406;DHT22;9329;48.720;9.588;2022-09-12T12:09:20;30.30;86.10
18406;DHT22;9329;48.720;9.588;2022-09-12T12:11:49;30.80;74.90
18406;DHT22;9329;48.720;9.588;2022-09-12T12:14:18;31.60;78.20
18406;DHT22;9329;48.720;9.588;2022-09-12T12:16:46;33.20;73.70
18406;DHT22;9329;48.720;9.588;2022-09-12T12:19:23;34.30;58.60
18406;DHT22;9329;48.720;9.588;2022-09-12T12:21:54;35.10;55.40
18406;DHT22;9329;48.720;9.588;2022-09-12T12:24:22;35.40;58.30
18406;DHT22;9329;48.720;9.588;2022-09-12T12:26:54;35.30;59.20
18406;DHT22;9329;48.720;9.588;2022-09-12T12:29:41;35.70;55.10
18406;DHT22;9329;48.720;9.588;2022-09-12T12:32:18;35.90;51.20
18406;DHT22;9329;48.720;9.588;2022-09-12T12:34:46;35.80;50.50
18406;DHT22;9329;48.720;9.588;2022-09-12T12:40:00;37.30;48.30
18406;DHT22;9329;48.720;9.588;2022-09-12T12:45:48;38.30;48.80
18406;DHT22;9329;48.720;9.588;2022-09-12T12:48:24;38.80;46.70
18406;DHT22;9329;48.720;9.588;2022-09-12T12:50:52;39.70;42.20
18406;DHT22;9329;48.720;9.588;2022-09-12T12:53:20;39.80;42.60
18406;DHT22;9329;48.720;9.588;2022-09-12T12:55:49;39.30;42.20
18406;DHT22;9329;48.720;9.588;2022-09-12T12:58:25;38.50;38.90
18406;DHT22;9329;48.720;9.588;2022-09-12T13:01:04;38.70;41.70
18406;DHT22;9329;48.720;9.588;2022-09-12T13:03:35;38.90;40.40
18406;DHT22;9329;48.720;9.588;2022-09-12T13:06:05;39.00;40.00
18406;DHT22;9329;48.720;9.588;2022-09-12T13:08:34;38.90;41.60
18406;DHT22;9329;48.720;9.588;2022-09-12T13:11:04;39.70;41.30
18406;DHT22;9329;48.720;9.588;2022-09-12T13:13:34;40.20;38.30
18406;DHT22;9329;48.720;9.588;2022-09-12T13:16:02;41.00;35.20
18406;DHT22;9329;48.720;9.588;2022-09-12T13:18:31;40.40;35.80
18406;DHT22;9329;48.720;9.588;2022-09-12T13:21:03;41.00;38.40
18406;DHT22;9329;48.720;9.588;2022-09-12T13:23:34;41.10;34.00
18406;DHT22;9329;48.720;9.588;2022-09-12T13:26:02;40.90;33.50
18406;DHT22;9329;48.720;9.588;2022-09-12T13:28:29;40.80;34.00
18406;DHT22;9329;48.720;9.588;2022-09-12T13:30:58;41.40;34.90
18406;DHT22;9329;48.720;9.588;2022-09-12T13:33:35;41.90;35.20
18406;DHT22;9329;48.720;9.588;2022-09-12T13:36:16;42.40;37.40
18406;DHT22;9329;48.720;9.588;2022-09-12T13:41:43;42.20;35.00
18406;DHT22;9329;48.720;9.588;2022-09-12T13:44:16;42.30;36.30
18406;DHT22;9329;48.720;9.588;2022-09-12T13:46:53;42.40;36.60
18406;DHT22;9329;48.720;9.588;2022-09-12T13:49:21;42.50;36.20
18406;DHT22;9329;48.720;9.588;2022-09-12T13:51:55;43.20;35.30
18406;DHT22;9329;48.720;9.588;2022-09-12T13:54:24;42.80;31.00
18406;DHT22;9329;48.720;9.588;2022-09-12T13:56:53;43.70;32.90
18406;DHT22;9329;48.720;9.588;2022-09-12T13:59:20;43.80;29.60
18406;DHT22;9329;48.720;9.588;2022-09-12T14:01:47;42.50;29.50
18406;DHT22;9329;48.720;9.588;2022-09-12T14:04:15;42.20;32.60
18406;DHT22;9329;48.720;9.588;2022-09-12T14:07:01;42.40;33.20
18406;DHT22;9329;48.720;9.588;2022-09-12T14:09:28;44.00;31.60
18406;DHT22;9329;48.720;9.588;2022-09-12T14:11:58;44.00;29.50
18406;DHT22;9329;48.720;9.588;2022-09-12T14:14:27;44.40;32.00
18406;DHT22;9329;48.720;9.588;2022-09-12T14:16:58;44.80;30.70
18406;DHT22;9329;48.720;9.588;2022-09-12T14:19:25;44.90;29.80
18406;DHT22;9329;48.720;9.588;2022-09-12T14:21:53;44.80;30.10
18406;DHT22;9329;48.720;9.588;2022-09-12T14:24:20;44.90;29.80
18406;DHT22;9329;48.720;9.588;2022-09-12T14:26:49;43.30;29.60
18406;DHT22;9329;48.720;9.588;2022-09-12T14:29:20;43.90;32.50
18406;DHT22;9329;48.720;9.588;2022-09-12T14:31:58;45.00;31.00
18406;DHT22;9329;48.720;9.588;2022-09-12T14:34:26;45.50;29.30
18406;DHT22;9329;48.720;9.588;2022-09-12T14:36:53;45.50;29.50
18406;DHT22;9329;48.720;9.588;2022-09-12T14:39:23;44.40;31.00
18406;DHT22;9329;48.720;9.588;2022-09-12T14:41:51;44.00;28.70
18406;DHT22;9329;48.720;9.588;2022-09-12T14:44:27;44.40;30.00
18406;DHT22;9329;48.720;9.588;2022-09-12T14:46:55;44.00;31.20
18406;DHT22;9329;48.720;9.588;2022-09-12T14:49:25;44.00;29.50
18406;DHT22;9329;48.720;9.588;2022-09-12T14:51:53;44.70;28.80
18406;DHT22;9329;48.720;9.588;2022-09-12T14:54:37;44.50;30.50
18406;DHT22;9329;48.720;9.588;2022-09-12T14:59:50;42.90;30.00
18406;DHT22;9329;48.720;9.588;2022-09-12T15:02:18;43.00;31.10
18406;DHT22;9329;48.720;9.588;2022-09-12T15:04:48;43.00;30.10
18406;DHT22;9329;48.720;9.588;2022-09-12T15:07:15;42.20;31.40
18406;DHT22;9329;48.720;9.588;2022-09-12T15:09:47;39.60;32.20
18406;DHT22;9329;48.720;9.588;2022-09-12T15:12:14;37.80;35.00
18406;DHT22;9329;48.720;9.588;2022-09-12T15:14:40;35.90;37.50
18406;DHT22;9329;48.720;9.588;2022-09-12T15:17:09;34.70;37.40
18406;DHT22;9329;48.720;9.588;2022-09-12T15:19:36;34.00;42.50
18406;DHT22;9329;48.720;9.588;2022-09-12T15:22:02;33.00;43.30
18406;DHT22;9329;48.720;9.588;2022-09-12T15:24:29;32.00;45.60
18406;DHT22;9329;48.720;9.588;2022-09-12T15:26:56;31.10;44.50
18406;DHT22;9329;48.720;9.588;2022-09-12T15:29:25;30.00;48.30
18406;DHT22;9329;48.720;9.588;2022-09-12T15:31:52;29.60;49.60
18406;DHT22;9329;48.720;9.588;2022-09-12T15:34:20;29.30;50.40
18406;DHT22;9329;48.720;9.588;2022-09-12T15:36:47;29.10;49.50
18406;DHT22;9329;48.720;9.588;2022-09-12T15:39:14;28.40;49.70
18406;DHT22;9329;48.720;9.588;2022-09-12T15:41:40;28.00;52.50
18406;DHT22;9329;48.720;9.588;2022-09-12T15:44:09;27.70;52.90
18406;DHT22;9329;48.720;9.588;2022-09-12T15:46:36;27.30;53.40
18406;DHT22;9329;48.720;9.588;2022-09-12T15:49:03;26.90;53.90
18406;DHT22;9329;48.720;9.588;2022-09-12T15:51:32;26.60;53.50
18406;DHT22;9329;48.720;9.588;2022-09-12T15:53:59;26.30;53.80
18406;DHT22;9329;48.720;9.588;2022-09-12T15:56:27;26.20;54.80
18406;DHT22;9329;48.720;9.588;2022-09-12T15:58:54;26.00;56.80
18406;DHT22;9329;48.720;9.588;2022-09-12T16:01:21;25.70;56.60
18406;DHT22;9329;48.720;9.588;2022-09-12T16:03:48;25.50;58.50
18406;DHT22;9329;48.720;9.588;2022-09-12T16:06:15;25.20;59.20
18406;DHT22;9329;48.720;9.588;2022-09-12T16:08:43;25.20;58.10
18406;DHT22;9329;48.720;9.588;2022-09-12T16:11:10;25.40;58.30
18406;DHT22;9329;48.720;9.588;2022-09-12T16:13:38;25.20;58.10
18406;DHT22;9329;48.720;9.588;2022-09-12T16:16:05;25.20;58.70
18406;DHT22;9329;48.720;9.588;2022-09-12T16:18:32;25.20;58.70